FYML

Mariental

Mariental, Namibia
METAR FYML 211300Z AUTO 14003KT //// // ////// 41/05 Q1015
Observed Flight Rules
Feb-21 @ 13:00 UTC (21 minutes ago)
Wind
140° at 3 knots
Temperatures Readings
Current 41°C / 106°F
Dewpoint 5°C / 41°F
Humidity 11%
Altimeter 29.97" Hg
Pressure 1015 hPa
Elevation 1113
METAR FYML 211300Z AUTO 14003KT //// // ////// 41/05 Q1015
Observed Flight Rules
Feb-21 @ 13:00 UTC
(21 minutes ago)
Wind
140° at 3 knots
Temperature Dewpoint
41°C / 106°F 5°C / 41°F
Humidity Altimeter Pressure
11% 29.97" Hg 1015 hPa